Time;durP1;ratioP1;P1;durP2;ratioP2;P2;SDS_P1;SDS_P2;PMS_P1;PMS_P2;Temp;Humidity;BMP_temperature;BMP_pressure;BME280_temperature;BME280_humidity;BME280_pressure;Samples;Min_cycle;Max_cycle;Signal;HPM_P1;HPM_P2
2022/06/26 00:01:45;;;;;;;15.05;4.07;;;;;;;17.32;100.00;63791.41;5044477;28;20240;-79
2022/06/26 00:04:13;;;;;;;4.03;3.63;;;;;;;17.30;100.00;63789.34;5043092;28;20269;-79
2022/06/26 00:06:40;;;;;;;6.25;3.80;;;;;;;17.23;100.00;63784.63;5042886;28;20494;-78
2022/06/26 00:09:08;;;;;;;6.72;3.70;;;;;;;17.21;100.00;63779.97;5044665;28;20204;-79
2022/06/26 00:11:35;;;;;;;10.00;4.15;;;;;;;17.15;100.00;63771.16;5054578;28;20193;-78
2022/06/26 00:14:02;;;;;;;6.25;3.78;;;;;;;17.12;100.00;63773.19;5044016;28;20239;-78
2022/06/26 00:16:29;;;;;;;4.40;3.63;;;;;;;17.04;100.00;63761.75;5041217;28;20214;-78
2022/06/26 00:18:57;;;;;;;6.00;3.55;;;;;;;17.03;100.00;63760.72;5043524;28;20213;-79
2022/06/26 00:21:24;;;;;;;5.00;4.05;;;;;;;17.07;100.00;63762.84;5037413;28;20288;-78
2022/06/26 00:23:51;;;;;;;7.15;3.65;;;;;;;17.12;100.00;63770.59;5042793;28;20528;-78
2022/06/26 00:26:20;;;;;;;4.50;3.80;;;;;;;17.11;100.00;63769.06;5044817;28;20217;-78
2022/06/26 00:28:46;;;;;;;5.45;3.95;;;;;;;17.10;100.00;63771.09;5028839;28;20224;-79
2022/06/26 00:31:13;;;;;;;4.15;3.03;;;;;;;17.13;100.00;63771.66;5030567;28;20257;-79
2022/06/26 00:33:40;;;;;;;4.05;3.40;;;;;;;17.11;100.00;63772.16;5052219;28;20197;-78
2022/06/26 00:36:07;;;;;;;6.40;3.90;;;;;;;17.13;100.00;63769.09;5041887;28;20220;-78
2022/06/26 00:38:34;;;;;;;7.13;3.53;;;;;;;17.18;100.00;63779.44;5029418;28;20431;-79
2022/06/26 00:41:01;;;;;;;3.83;3.47;;;;;;;17.17;100.00;63772.72;5032344;28;20216;-78
2022/06/26 00:43:30;;;;;;;7.07;3.65;;;;;;;17.10;100.00;63765.44;5047923;28;20217;-79
2022/06/26 00:45:57;;;;;;;7.80;3.28;;;;;;;17.15;100.00;63773.72;5042380;28;20236;-77
2022/06/26 00:48:24;;;;;;;5.47;3.55;;;;;;;17.09;100.00;63770.06;5049019;28;20229;-79
2022/06/26 00:50:52;;;;;;;8.35;4.15;;;;;;;17.08;100.00;63763.88;5047230;28;20217;-79
2022/06/26 00:53:19;;;;;;;4.45;3.60;;;;;;;17.04;100.00;63762.28;5045447;28;20198;-78
2022/06/26 00:55:46;;;;;;;4.85;3.47;;;;;;;17.10;100.00;63763.38;5045657;28;20217;-79
2022/06/26 00:58:13;;;;;;;4.43;3.13;;;;;;;17.06;100.00;63761.28;5048957;28;20225;-79
2022/06/26 01:00:42;;;;;;;7.50;3.15;;;;;;;17.06;100.00;63766.94;5048884;28;20221;-77
2022/06/26 01:03:09;;;;;;;4.32;3.08;;;;;;;17.12;100.00;63772.66;5044964;28;20229;-79
2022/06/26 01:05:39;;;;;;;4.70;4.13;;;;;;;17.11;100.00;63767.00;5050204;28;20546;-78
2022/06/26 01:08:08;;;;;;;3.42;3.22;;;;;;;17.07;100.00;63765.41;5047520;28;20261;-80
2022/06/26 01:10:35;;;;;;;4.85;3.40;;;;;;;16.99;100.00;63759.66;5051764;28;20218;-80
2022/06/26 01:13:02;;;;;;;3.20;3.00;;;;;;;17.00;100.00;63758.13;5040513;28;20505;-79
2022/06/26 01:15:29;;;;;;;5.68;3.28;;;;;;;16.97;100.00;63759.63;5041483;28;20229;-79
2022/06/26 01:17:58;;;;;;;5.68;3.03;;;;;;;16.91;100.00;63750.81;5030015;28;20224;-79
2022/06/26 01:20:25;;;;;;;2.88;2.47;;;;;;;16.87;100.00;63746.63;5031062;28;20222;-80
2022/06/26 01:23:02;;;;;;;3.58;2.20;;;;;;;16.83;100.00;63737.31;5040294;28;20222;-79
2022/06/26 01:25:41;;;;;;;2.50;2.30;;;;;;;16.78;100.00;63737.28;5049047;28;20216;-79
2022/06/26 01:28:08;;;;;;;2.50;2.30;;;;;;;16.75;100.00;63729.53;5029852;28;20190;-79
2022/06/26 01:30:35;;;;;;;3.33;2.17;;;;;;;16.76;100.00;63730.56;5035954;28;20572;-79
2022/06/26 01:33:02;;;;;;;2.83;1.95;;;;;;;16.64;100.00;63720.13;5049498;28;20194;-79
2022/06/26 01:35:30;;;;;;;3.20;1.67;;;;;;;16.71;100.00;63733.09;5057117;28;20225;-79
2022/06/26 01:38:07;;;;;;;2.58;2.05;;;;;;;16.66;100.00;63722.75;5069021;28;20592;-79
2022/06/26 01:40:36;;;;;;;5.18;2.40;;;;;;;16.66;100.00;63719.63;5032906;28;20419;-79
2022/06/26 01:43:02;;;;;;;2.33;1.80;;;;;;;16.64;100.00;63725.28;5049276;28;20194;-78
2022/06/26 01:45:29;;;;;;;1.60;1.48;;;;;;;16.60;100.00;63719.06;5049615;28;20214;-80
2022/06/26 01:47:56;;;;;;;2.22;2.08;;;;;;;16.61;100.00;63717.00;5045504;28;20206;-79
2022/06/26 01:50:23;;;;;;;2.38;2.17;;;;;;;16.66;100.00;63720.16;5031933;28;20218;-79
2022/06/26 01:52:50;;;;;;;1.63;1.52;;;;;;;16.65;100.00;63718.59;5034508;28;20248;-79
2022/06/26 01:55:17;;;;;;;5.25;2.28;;;;;;;16.60;100.00;63713.41;5048644;28;20416;-80
2022/06/26 01:57:46;;;;;;;2.10;2.00;;;;;;;16.63;100.00;63719.63;5040728;28;20238;-79
2022/06/26 02:00:14;;;;;;;10.05;3.60;;;;;;;16.59;100.00;63718.03;5039101;28;20230;-80
2022/06/26 02:02:41;;;;;;;3.65;1.92;;;;;;;16.67;100.00;63726.34;5048630;28;20221;-78
2022/06/26 02:05:08;;;;;;;3.90;1.75;;;;;;;16.65;100.00;63723.75;5050293;28;20221;-79
2022/06/26 02:07:35;;;;;;;2.00;1.90;;;;;;;16.65;100.00;63721.69;5037522;28;20285;-80
2022/06/26 02:15:33;;;;;;;5.85;1.67;;;;;;;16.85;100.00;63745.09;5050453;28;20240;-80
2022/06/26 02:18:00;;;;;;;6.85;2.22;;;;;;;16.91;100.00;63746.16;5051336;28;20288;-81
2022/06/26 02:20:27;;;;;;;3.72;2.25;;;;;;;16.89;100.00;63749.25;5052224;28;20244;-80
2022/06/26 02:22:54;;;;;;;2.20;1.88;;;;;;;16.84;100.00;63746.09;5055196;28;20190;-81
2022/06/26 02:25:21;;;;;;;2.40;2.15;;;;;;;16.89;100.00;63748.72;5043609;28;20285;-80
2022/06/26 02:27:49;;;;;;;4.13;2.03;;;;;;;17.00;100.00;63755.53;5032488;28;20206;-79
2022/06/26 02:30:16;;;;;;;6.53;2.30;;;;;;;16.93;100.00;63747.72;5044295;28;20294;-80
2022/06/26 02:32:43;;;;;;;2.47;2.10;;;;;;;16.91;100.00;63751.31;5052345;28;20200;-81
2022/06/26 02:35:10;;;;;;;6.88;2.10;;;;;;;16.95;100.00;63749.81;5037700;28;20226;-81
2022/06/26 02:37:37;;;;;;;2.97;2.15;;;;;;;16.91;100.00;63746.16;5032509;28;20230;-80
2022/06/26 02:40:06;;;;;;;2.72;2.30;;;;;;;16.88;100.00;63748.19;5068960;28;20228;-81
2022/06/26 02:42:33;;;;;;;4.18;2.10;;;;;;;16.82;100.00;63741.44;5052410;28;20434;-81
2022/06/26 02:45:01;;;;;;;6.20;2.10;;;;;;;16.77;100.00;63736.75;5032633;28;20282;-80
2022/06/26 02:47:29;;;;;;;2.78;2.22;;;;;;;16.72;100.00;63723.81;5034256;28;20207;-81
2022/06/26 02:49:56;;;;;;;2.75;2.08;;;;;;;16.66;100.00;63722.75;5051802;28;20425;-81
2022/06/26 02:52:23;;;;;;;2.95;2.20;;;;;;;16.64;100.00;63722.69;5051338;28;20495;-81
2022/06/26 02:54:50;;;;;;;3.60;1.85;;;;;;;16.60;100.00;63713.41;5050872;28;20237;-80
2022/06/26 02:57:17;;;;;;;2.92;2.05;;;;;;;16.55;100.00;63710.78;5050334;28;20240;-80
2022/06/26 02:59:44;;;;;;;3.38;2.42;;;;;;;16.57;100.00;63713.38;5048137;28;20238;-80
2022/06/26 03:02:13;;;;;;;5.88;3.25;;;;;;;16.48;100.00;63703.50;5045868;28;20198;-80
2022/06/26 03:04:39;;;;;;;3.67;2.25;;;;;;;16.54;100.00;63710.25;5049062;28;20221;-81
2022/06/26 03:07:06;;;;;;;2.78;1.98;;;;;;;16.45;100.00;63700.88;5062331;28;20236;-80
2022/06/26 03:09:33;;;;;;;3.17;2.22;;;;;;;16.46;100.00;63701.94;5046664;28;20220;-81
2022/06/26 03:12:00;;;;;;;2.88;2.25;;;;;;;16.49;100.00;63707.09;5066424;28;20217;-81
2022/06/26 03:14:27;;;;;;;3.85;2.25;;;;;;;16.59;100.00;63712.88;5065204;28;20409;-82
2022/06/26 03:16:54;;;;;;;4.25;2.10;;;;;;;16.65;100.00;63719.13;5051509;28;20217;-81
2022/06/26 03:19:23;;;;;;;2.88;1.80;;;;;;;16.70;100.00;63723.81;5039051;28;20280;-81
2022/06/26 03:21:50;;;;;;;3.72;2.15;;;;;;;16.73;100.00;63729.50;5049522;28;20197;-81
2022/06/26 03:24:17;;;;;;;5.68;2.70;;;;;;;16.76;100.00;63735.72;5048562;28;20208;-81
2022/06/26 03:26:44;;;;;;;4.50;2.30;;;;;;;16.68;100.00;63724.28;5035457;28;20210;-81
2022/06/26 03:29:12;;;;;;;6.18;2.10;;;;;;;16.71;100.00;63727.94;5042060;28;20212;-82
2022/06/26 03:31:39;;;;;;;3.92;2.38;;;;;;;16.89;100.00;63744.09;5049766;28;20415;-81
2022/06/26 03:34:06;;;;;;;5.07;2.38;;;;;;;16.94;100.00;63749.31;5059501;28;20201;-82
2022/06/26 03:36:35;;;;;;;5.53;2.28;;;;;;;16.97;100.00;63757.56;5043809;28;20248;-81
2022/06/26 03:39:03;;;;;;;2.40;2.20;;;;;;;17.02;100.00;63755.06;5047732;28;20221;-81
2022/06/26 03:41:30;;;;;;;4.15;2.35;;;;;;;17.06;100.00;63764.38;5048794;28;20213;-81
2022/06/26 03:43:57;;;;;;;3.38;2.33;;;;;;;17.09;100.00;63764.91;5049312;28;20251;-81
2022/06/26 03:46:24;;;;;;;6.00;2.20;;;;;;;17.20;100.00;63775.84;5048504;28;20378;-82
2022/06/26 03:48:51;;;;;;;3.55;3.25;;;;;;;17.29;100.00;63790.88;5048767;28;20217;-81
2022/06/26 03:51:18;;;;;;;3.03;2.70;;;;;;;17.35;100.00;63796.59;5050942;28;20221;-81
2022/06/26 03:53:47;;;;;;;3.80;2.53;;;;;;;17.51;100.00;63807.63;5050948;28;20224;-80
2022/06/26 03:56:14;;;;;;;2.58;2.38;;;;;;;17.57;100.00;63816.44;5039713;28;20218;-80
2022/06/26 03:58:41;;;;;;;6.28;2.63;;;;;;;17.69;100.00;63828.94;5033522;28;20332;-80
2022/06/26 04:01:08;;;;;;;5.07;2.67;;;;;;;17.63;100.00;63823.22;5051419;28;20312;-81
2022/06/26 04:03:39;;;;;;;4.72;2.90;;;;;;;17.74;100.00;63832.09;5045749;28;20214;-85
2022/06/26 04:06:08;;;;;;;4.68;3.05;;;;;;;17.83;100.00;63838.34;5034850;28;20280;-84
2022/06/26 04:08:35;;;;;;;5.20;2.88;;;;;;;17.68;100.00;63830.47;5037295;28;20208;-85
2022/06/26 04:11:06;;;;;;;5.38;3.65;;;;;;;17.21;100.00;63782.03;5052974;28;20217;-83
2022/06/26 04:13:35;;;;;;;4.80;4.40;;;;;;;17.37;100.00;63793.53;5042829;28;20220;-84
2022/06/26 04:16:02;;;;;;;7.20;4.47;;;;;;;17.52;100.00;63813.78;5046777;28;20217;-81
2022/06/26 04:18:29;;;;;;;8.55;5.22;;;;;;;17.45;100.00;63801.34;5010619;28;1167405;-82
2022/06/26 04:21:01;;;;;;;6.80;5.07;;;;;;;17.48;100.00;63807.06;5052738;28;20255;-81
2022/06/26 04:23:31;;;;;;;6.85;5.13;;;;;;;17.47;100.00;63806.53;5044282;28;20194;-83
2022/06/26 04:25:58;;;;;;;6.10;4.40;;;;;;;17.51;100.00;63810.72;5032471;28;20221;-82
2022/06/26 04:28:26;;;;;;;5.18;4.78;;;;;;;17.69;100.00;63831.53;5065082;28;20225;-80
2022/06/26 04:30:54;;;;;;;5.45;3.78;;;;;;;17.69;100.00;63829.44;5071155;28;20232;-83
2022/06/26 04:33:22;;;;;;;6.07;3.67;;;;;;;17.85;100.00;63843.53;5048601;28;20265;-79
2022/06/26 04:35:52;;;;;;;4.85;3.95;;;;;;;17.77;100.00;63834.69;5052015;28;20217;-85
2022/06/26 04:38:19;;;;;;;6.68;5.00;;;;;;;17.67;100.00;63827.38;5052912;28;20233;-82
2022/06/26 04:40:47;;;;;;;5.05;4.40;;;;;;;17.82;100.00;63845.56;5052761;28;20217;-81
2022/06/26 04:43:14;;;;;;;6.30;4.07;;;;;;;17.80;100.00;63840.38;5047015;28;20208;-80
2022/06/26 04:45:42;;;;;;;12.18;3.88;;;;;;;17.91;100.00;63851.84;5052151;28;20213;-81
2022/06/26 04:48:15;;;;;;;9.57;5.10;;;;;;;17.97;100.00;63855.53;5051750;28;20221;-82
2022/06/26 04:50:42;;;;;;;4.97;3.65;;;;;;;17.93;100.00;63851.38;5048265;28;20213;-80
2022/06/26 04:53:09;;;;;;;4.10;3.60;;;;;;;18.06;100.00;63862.84;5050979;28;20197;-80
2022/06/26 04:55:36;;;;;;;7.10;4.03;;;;;;;18.07;100.00;63865.94;5050954;28;20235;-81
2022/06/26 04:58:03;;;;;;;4.38;3.97;;;;;;;18.24;100.00;63886.22;5052607;28;20310;-83
2022/06/26 05:00:30;;;;;;;9.05;4.53;;;;;;;18.27;100.00;63889.34;5047701;28;20218;-82
2022/06/26 05:02:58;;;;;;;5.10;4.57;;;;;;;18.17;100.00;63879.44;5050752;28;20193;-82
2022/06/26 05:05:26;;;;;;;5.97;5.00;;;;;;;18.27;100.00;63889.34;5050444;28;20292;-83
2022/06/26 05:07:53;;;;;;;7.22;4.85;;;;;;;18.40;100.00;63903.44;5050043;28;20413;-82
2022/06/26 05:10:20;;;;;;;5.85;4.55;;;;;;;18.31;100.00;63899.19;5044834;28;20228;-83
2022/06/26 05:12:47;;;;;;;5.88;4.97;;;;;;;18.38;100.00;63900.81;5042775;28;20206;-82
2022/06/26 05:15:14;;;;;;;8.88;5.65;;;;;;;18.46;100.00;63909.19;5037522;28;20229;-82
2022/06/26 05:17:41;;;;;;;8.18;5.72;;;;;;;18.54;100.00;63914.41;5031642;28;20210;-83
2022/06/26 05:20:11;;;;;;;5.90;4.95;;;;;;;18.56;100.00;63919.59;5047398;28;20284;-83
2022/06/26 05:22:38;;;;;;;9.73;5.70;;;;;;;18.71;100.00;63934.69;5049757;28;20206;-82
2022/06/26 05:25:06;;;;;;;7.30;6.18;;;;;;;18.92;100.00;63956.59;5045134;28;20255;-82
2022/06/26 05:27:36;;;;;;;7.10;6.40;;;;;;;18.93;100.00;63958.16;5050427;28;20186;-83
2022/06/26 05:30:08;;;;;;;9.45;6.70;;;;;;;19.09;100.00;63977.41;5052607;28;20248;-82
2022/06/26 05:32:35;;;;;;;8.30;6.70;;;;;;;18.97;100.00;63964.91;5054469;28;20198;-82
2022/06/26 05:35:04;;;;;;;10.18;6.65;;;;;;;19.38;100.00;64007.16;5055596;28;20217;-82
2022/06/26 05:37:32;;;;;;;7.50;6.03;;;;;;;19.32;100.00;64001.44;5042699;28;20190;-82
2022/06/26 05:39:59;;;;;;;6.97;6.03;;;;;;;19.44;100.00;64010.84;5048194;28;20411;-83
2022/06/26 05:42:26;;;;;;;7.70;6.53;;;;;;;19.63;100.00;64027.53;5043258;28;20225;-83
2022/06/26 05:44:53;;;;;;;9.02;7.15;;;;;;;19.58;100.00;64024.91;5047932;28;20225;-83
2022/06/26 05:47:20;;;;;;;7.53;6.28;;;;;;;19.75;100.00;64040.59;5033432;28;20201;-83
2022/06/26 05:49:47;;;;;;;12.02;7.22;;;;;;;19.82;100.00;64052.53;5032950;28;20222;-83
2022/06/26 05:52:14;;;;;;;7.32;6.65;;;;;;;19.80;100.00;64048.38;5048436;28;20215;-82
2022/06/26 05:54:43;;;;;;;6.22;5.07;;;;;;;19.83;100.00;64051.50;5048999;28;20597;-82
2022/06/26 05:57:10;;;;;;;4.38;3.90;;;;;;;20.05;100.00;64074.47;5051810;28;20249;-82
2022/06/26 05:59:37;;;;;;;9.98;5.10;;;;;;;19.79;100.00;64046.81;5050619;28;20459;-84
2022/06/26 06:02:05;;;;;;;9.70;4.20;;;;;;;19.98;100.00;64074.94;5051762;28;20257;-83
2022/06/26 06:04:32;;;;;;;4.82;4.35;;;;;;;20.06;100.00;64075.50;5066289;28;20221;-83
2022/06/26 06:06:59;;;;;;;6.05;4.47;;;;;;;20.35;100.00;64105.25;5065617;28;20197;-83
2022/06/26 06:09:27;;;;;;;5.82;4.30;;;;;;;20.39;100.00;64109.97;5053583;28;20216;-83
2022/06/26 06:11:56;;;;;;;5.93;5.20;;;;;;;20.14;100.00;64086.44;5051595;28;20209;-88
2022/06/26 06:14:24;;;;;;;6.05;5.47;;;;;;;19.47;100.00;64011.91;5051976;28;20201;-83
2022/06/26 06:16:51;;;;;;;10.68;5.13;;;;;;;19.23;100.00;63986.84;5052159;28;20194;-84
2022/06/26 06:19:18;;;;;;;6.93;5.55;;;;;;;19.10;100.00;63972.78;5048001;28;20237;-84
2022/06/26 06:21:46;;;;;;;6.45;5.60;;;;;;;19.15;100.00;63983.16;5051905;28;20197;-84
2022/06/26 06:24:13;;;;;;;6.07;5.57;;;;;;;19.21;100.00;63989.94;5050299;28;20201;-84
2022/06/26 06:26:40;;;;;;;7.10;6.40;;;;;;;19.24;100.00;63990.47;5050951;28;20209;-84
2022/06/26 06:29:09;;;;;;;7.55;5.72;;;;;;;19.24;100.00;63993.06;5050160;28;20212;-85
2022/06/26 06:31:36;;;;;;;6.05;5.40;;;;;;;19.61;100.00;64030.63;5051274;28;20201;-83
2022/06/26 06:34:03;;;;;;;7.38;5.35;;;;;;;19.77;100.00;64042.66;5050462;28;20203;-84
2022/06/26 06:36:30;;;;;;;6.10;5.63;;;;;;;20.02;100.00;64073.91;5045282;28;20244;-85
2022/06/26 06:39:00;;;;;;;10.57;5.90;;;;;;;20.08;100.00;64077.06;5046759;28;20229;-85
2022/06/26 06:41:27;;;;;;;6.55;6.00;;;;;;;19.64;100.00;64031.19;5051073;28;20217;-86
2022/06/26 06:43:54;;;;;;;8.60;5.93;;;;;;;20.19;100.00;64086.00;5048942;28;20510;-87
2022/06/26 06:46:23;;;;;;;6.32;5.70;;;;;;;20.09;100.00;64078.63;5050504;28;20217;-85
2022/06/26 06:48:50;;;;;;;6.68;5.35;;;;;;;20.45;100.00;64118.81;5049405;28;20217;-86
2022/06/26 06:51:17;;;;;;;10.43;5.32;;;;;;;20.66;100.00;64138.16;5052672;28;20213;-85
2022/06/26 06:53:45;;;;;;;7.05;6.10;;;;;;;20.75;100.00;64149.09;5043945;28;20244;-85
2022/06/26 06:56:12;;;;;;;6.65;5.63;;;;;;;20.57;100.00;64125.66;5037177;28;20218;-85
2022/06/26 06:58:40;;;;;;;7.03;5.32;;;;;;;20.70;100.00;64141.81;5047107;28;20197;-88
2022/06/26 07:01:07;;;;;;;7.40;5.65;;;;;;;20.97;100.00;64166.88;5056395;28;20277;-87
2022/06/26 07:03:36;;;;;;;6.65;6.05;;;;;;;21.02;100.00;64177.81;5052341;28;20191;-86
2022/06/26 07:06:07;;;;;;;16.35;6.25;;;;;;;21.12;100.00;64182.56;5040079;28;20229;-87
2022/06/26 07:08:35;;;;;;;6.53;5.93;;;;;;;21.07;100.00;64183.03;5057545;28;20206;-88
2022/06/26 07:11:02;;;;;;;6.45;5.82;;;;;;;21.69;100.00;64242.09;5049626;28;20212;-86
2022/06/26 07:13:32;;;;;;;12.00;5.75;;;;;;;21.70;100.00;64243.16;5053784;28;20198;-87
2022/06/26 07:16:07;;;;;;;5.93;5.32;;;;;;;21.65;100.00;64238.44;5052204;28;20209;-86
2022/06/26 07:18:41;;;;;;;6.38;5.82;;;;;;;22.04;100.00;64280.78;5051587;28;20211;-85
2022/06/26 07:21:08;;;;;;;10.75;6.68;;;;;;;21.67;100.00;64242.59;5051495;28;20564;-88
2022/06/26 07:23:36;;;;;;;6.38;5.22;;;;;;;21.77;100.00;64256.19;5049554;28;20204;-87
2022/06/26 07:26:03;;;;;;;6.78;5.40;;;;;;;21.75;100.00;64250.97;5053123;28;20230;-86
2022/06/26 07:28:30;;;;;;;5.68;5.18;;;;;;;21.60;100.00;64235.81;5043411;28;20214;-88
2022/06/26 07:30:59;;;;;;;8.90;5.15;;;;;;;21.70;100.00;64248.31;5046132;28;20283;-89
2022/06/26 07:36:12;;;;;;;6.90;4.65;;;;;;;21.67;100.00;64242.59;5046485;28;20227;-89
2022/06/26 07:38:40;;;;;;;7.32;4.45;;;;;;;21.46;100.00;64223.78;5049005;28;20243;-87
2022/06/26 07:41:08;;;;;;;6.53;4.15;;;;;;;21.57;100.00;64235.25;5049742;28;20256;-87
2022/06/26 07:43:35;;;;;;;5.80;4.20;;;;;;;21.77;100.00;64256.19;5049702;28;20197;-86
2022/06/26 07:46:03;;;;;;;6.53;5.20;;;;;;;21.67;99.68;64245.19;5051705;28;20225;-85
2022/06/26 07:48:31;;;;;;;10.00;3.85;;;;;;;21.98;97.71;64271.91;5051093;28;20186;-86
2022/06/26 07:50:58;;;;;;;5.85;3.38;;;;;;;22.00;97.71;64277.13;5050612;28;20237;-84
2022/06/26 07:53:27;;;;;;;4.30;3.95;;;;;;;21.91;97.98;64270.28;5047210;28;20201;-86
2022/06/26 07:55:55;;;;;;;7.00;3.50;;;;;;;22.02;95.76;64281.28;5049153;28;20217;-86
2022/06/26 07:58:22;;;;;;;4.35;3.85;;;;;;;22.18;97.87;64297.97;5050077;28;20186;-87
2022/06/26 08:00:49;;;;;;;3.40;3.10;;;;;;;22.07;94.45;64281.81;5051905;28;20252;-85
2022/06/26 08:03:16;;;;;;;10.85;4.15;;;;;;;22.68;92.31;64345.59;5047764;28;20224;-86
2022/06/26 08:05:45;;;;;;;8.07;4.30;;;;;;;22.90;99.62;64368.06;5048836;28;20209;-85
2022/06/26 08:08:12;;;;;;;5.63;4.28;;;;;;;22.84;98.28;64361.81;5050608;28;20221;-83
2022/06/26 08:10:41;;;;;;;7.13;3.92;;;;;;;22.67;95.72;64354.44;5048742;28;20238;-84
2022/06/26 08:13:09;;;;;;;5.95;3.55;;;;;;;22.85;91.41;64365.44;5048801;28;20228;-83
2022/06/26 08:15:36;;;;;;;4.40;3.05;;;;;;;22.80;91.56;64357.63;5048922;28;20221;-82
2022/06/26 08:18:04;;;;;;;4.20;3.13;;;;;;;23.20;89.39;64404.13;5049286;28;20260;-84
2022/06/26 08:20:31;;;;;;;2.78;2.55;;;;;;;22.98;79.75;64379.06;5043513;28;20240;-83
2022/06/26 08:22:59;;;;;;;5.95;3.00;;;;;;;22.70;79.11;64350.31;5049605;28;20202;-81
2022/06/26 08:25:26;;;;;;;3.40;3.08;;;;;;;22.78;80.59;64355.53;5048340;28;20608;-82
2022/06/26 08:27:54;;;;;;;3.90;3.10;;;;;;;22.51;86.23;64327.28;5046520;28;20197;-81
2022/06/26 08:30:21;;;;;;;3.97;3.40;;;;;;;22.67;84.73;64349.75;5044408;28;20221;-79
2022/06/26 08:32:58;;;;;;;4.90;2.75;;;;;;;22.63;84.32;64345.56;5050690;28;20253;-82
2022/06/26 08:35:27;;;;;;;5.43;2.78;;;;;;;22.83;84.91;64358.69;5030683;28;20209;-81
2022/06/26 08:37:55;;;;;;;3.47;3.05;;;;;;;23.07;84.43;64390.53;5044101;28;20233;-81
2022/06/26 08:40:22;;;;;;;6.95;2.88;;;;;;;23.15;86.21;64396.84;5044278;28;20241;-80
2022/06/26 08:42:52;;;;;;;4.47;3.22;;;;;;;23.40;84.46;64417.78;5044436;28;20308;-79
2022/06/26 08:45:22;;;;;;;5.18;3.00;;;;;;;23.60;77.08;64443.41;5042206;28;20214;-80
2022/06/26 08:47:52;;;;;;;3.72;2.67;;;;;;;23.62;74.36;64446.03;5031936;28;20420;-80
2022/06/26 08:50:23;;;;;;;4.20;2.80;;;;;;;23.87;81.98;64469.56;5043523;28;20214;-78
2022/06/26 08:52:52;;;;;;;4.10;2.80;;;;;;;24.04;75.33;64486.84;5036827;28;20268;-81
2022/06/26 08:55:20;;;;;;;4.45;2.75;;;;;;;24.19;73.62;64507.78;5042157;28;20252;-80
2022/06/26 08:57:48;;;;;;;4.05;2.97;;;;;;;24.39;79.74;64522.97;5045595;28;20257;-79
2022/06/26 09:00:19;;;;;;;4.85;2.47;;;;;;;24.57;73.00;64550.16;5037578;28;20233;-81
2022/06/26 09:02:48;;;;;;;4.32;3.22;;;;;;;24.72;71.24;64560.16;5040088;28;20229;-82
2022/06/26 09:05:15;;;;;;;3.28;2.90;;;;;;;24.85;63.25;64574.28;5044073;28;20217;-79
2022/06/26 09:07:49;;;;;;;4.47;2.85;;;;;;;24.95;67.31;64579.53;5034740;28;20530;-79
2022/06/26 09:10:17;;;;;;;3.33;2.95;;;;;;;24.91;61.78;64583.19;5041096;28;20225;-80
2022/06/26 09:12:50;;;;;;;2.58;2.30;;;;;;;24.79;59.59;64567.47;5045764;28;20199;-80
2022/06/26 09:15:18;;;;;;;2.72;2.53;;;;;;;24.84;61.80;64573.25;5049357;28;20225;-82
2022/06/26 09:18:01;;;;;;;3.47;2.88;;;;;;;25.02;64.55;64588.97;5052023;28;20206;-80
2022/06/26 09:20:29;;;;;;;7.55;3.55;;;;;;;25.07;63.90;64599.94;5052528;28;20237;-79
2022/06/26 09:22:59;;;;;;;4.60;3.15;;;;;;;25.22;64.22;64609.91;5047504;28;20258;-78
2022/06/26 09:25:37;;;;;;;7.88;3.38;;;;;;;25.39;65.12;64632.44;5053403;28;20232;-83
2022/06/26 09:28:10;;;;;;;5.18;2.85;;;;;;;25.47;61.02;64636.13;5054958;28;20235;-84
2022/06/26 09:30:47;;;;;;;3.08;2.70;;;;;;;25.20;58.49;64609.91;5050032;28;20244;-83
2022/06/26 09:33:18;;;;;;;4.95;2.75;;;;;;;24.67;61.96;64558.03;5050283;28;20205;-83
2022/06/26 09:35:46;;;;;;;2.80;2.58;;;;;;;25.00;60.83;64590.00;5049399;28;20221;-84
2022/06/26 09:38:18;;;;;;;3.28;3.08;;;;;;;24.96;62.25;64588.41;5052783;28;20204;-83
2022/06/26 09:40:54;;;;;;;5.55;2.75;;;;;;;24.74;60.89;64562.25;5050981;28;20241;-83
2022/06/26 09:43:30;;;;;;;5.25;2.60;;;;;;;25.14;63.37;64604.16;5049264;28;20193;-85
2022/06/26 09:46:00;;;;;;;2.85;2.65;;;;;;;25.07;64.76;64594.72;5050733;28;20213;-85
2022/06/26 09:48:34;;;;;;;2.97;2.75;;;;;;;25.10;58.07;64599.94;5047422;28;20228;-83
2022/06/26 09:51:02;;;;;;;2.83;2.60;;;;;;;24.88;53.63;64577.44;5048571;28;20391;-82
2022/06/26 09:53:31;;;;;;;3.63;2.97;;;;;;;24.34;55.78;64520.34;5051284;28;20212;-83
2022/06/26 09:56:00;;;;;;;3.38;3.13;;;;;;;24.59;57.21;64544.44;5053484;28;20230;-82
2022/06/26 09:58:30;;;;;;;5.28;3.10;;;;;;;24.54;58.47;64543.91;5047416;28;20229;-85
2022/06/26 10:06:33;;;;;;;3.20;3.00;;;;;;;25.51;56.99;64642.41;5054280;28;20284;-82
2022/06/26 10:09:03;;;;;;;4.65;3.28;;;;;;;25.47;57.71;64636.13;5055758;28;20194;-83
2022/06/26 10:11:34;;;;;;;3.45;3.15;;;;;;;25.49;56.01;64640.81;5055777;28;20221;-87
2022/06/26 10:14:10;;;;;;;4.85;2.72;;;;;;;25.69;52.17;64664.41;5051874;28;20205;-88
2022/06/26 10:16:56;;;;;;;4.88;3.05;;;;;;;25.39;56.41;64632.97;5052275;28;20197;-86
2022/06/26 10:19:33;;;;;;;3.97;2.60;;;;;;;24.97;55.87;64589.47;5051048;28;20229;-88
2022/06/26 10:22:10;;;;;;;3.38;2.67;;;;;;;24.91;54.51;64583.19;5054106;28;20423;-88
2022/06/26 10:24:49;;;;;;;3.13;2.92;;;;;;;24.58;53.94;64542.88;5054241;28;20216;-87
2022/06/26 10:27:17;;;;;;;2.78;2.58;;;;;;;25.02;49.79;64588.97;5051649;28;20197;-86
2022/06/26 10:29:44;;;;;;;2.40;2.22;;;;;;;25.16;50.77;64600.50;5051193;28;20221;-86
2022/06/26 10:32:23;;;;;;;3.00;2.80;;;;;;;25.47;53.46;64638.72;5052261;28;20216;-86
2022/06/26 10:34:57;;;;;;;4.53;2.95;;;;;;;25.53;54.96;64642.41;5051265;28;20278;-86
2022/06/26 10:37:25;;;;;;;2.95;2.40;;;;;;;25.11;48.84;64595.78;5047317;28;20191;-87
2022/06/26 10:39:54;;;;;;;2.63;2.17;;;;;;;25.25;49.18;64615.16;5048081;28;20228;-84
2022/06/26 10:45:11;;;;;;;2.10;2.00;;;;;;;25.33;50.31;64623.53;5043933;28;20251;-83
2022/06/26 10:47:49;;;;;;;2.58;2.47;;;;;;;25.42;50.77;64636.09;5052224;28;20189;-87
2022/06/26 10:50:27;;;;;;;2.40;2.30;;;;;;;25.46;47.83;64637.69;5049905;28;20217;-86
2022/06/26 10:52:55;;;;;;;4.43;2.65;;;;;;;25.53;48.32;64645.03;5033808;28;20202;-84
2022/06/26 10:55:25;;;;;;;2.47;2.28;;;;;;;25.22;47.91;64612.00;5068762;28;20223;-84
2022/06/26 10:57:52;;;;;;;2.47;2.28;;;;;;;25.21;49.85;64610.97;5053799;28;20206;-85
2022/06/26 11:00:19;;;;;;;3.35;2.30;;;;;;;25.60;50.85;64652.34;5041550;28;20229;-81
2022/06/26 11:02:46;;;;;;;3.45;2.58;;;;;;;25.71;49.26;64660.75;5038123;28;20217;-84
2022/06/26 11:05:15;;;;;;;2.95;2.30;;;;;;;25.53;49.90;64647.63;5048072;28;20223;-85
2022/06/26 11:07:46;;;;;;;4.03;2.75;;;;;;;25.82;50.33;64674.88;5049237;28;20438;-85
2022/06/26 11:10:15;;;;;;;2.67;2.35;;;;;;;25.68;50.17;64663.34;5047689;28;20217;-84
2022/06/26 11:12:44;;;;;;;2.85;2.33;;;;;;;25.59;49.23;64653.91;5052329;28;20232;-83
2022/06/26 11:15:26;;;;;;;3.65;2.65;;;;;;;25.40;49.08;64633.50;5046946;28;20240;-84
2022/06/26 11:17:55;;;;;;;2.60;2.38;;;;;;;25.87;49.07;64677.50;5046336;28;20479;-85
2022/06/26 11:23:15;;;;;;;3.25;2.00;;;;;;;26.27;48.78;64726.78;5030862;28;20278;-84
2022/06/26 11:25:43;;;;;;;3.58;2.13;;;;;;;26.20;44.08;64717.34;5045679;28;20217;-84
2022/06/26 11:28:12;;;;;;;2.30;2.10;;;;;;;26.54;44.41;64747.25;5045900;28;20217;-83
2022/06/26 11:30:41;;;;;;;4.97;2.17;;;;;;;26.15;45.90;64702.19;5041920;28;20252;-85
2022/06/26 11:33:09;;;;;;;2.13;2.03;;;;;;;26.60;44.87;64754.06;5047118;28;20212;-86
2022/06/26 11:35:37;;;;;;;2.50;2.30;;;;;;;26.96;44.28;64796.53;5050720;28;20214;-86
2022/06/26 11:38:13;;;;;;;2.95;2.15;;;;;;;26.94;45.62;64794.97;5053259;28;20205;-85
2022/06/26 11:40:44;;;;;;;3.72;3.42;;;;;;;27.22;45.19;64821.19;5049612;28;20231;-83
2022/06/26 11:43:12;;;;;;;2.47;2.30;;;;;;;27.24;44.01;64823.84;5050072;28;20197;-82
2022/06/26 11:45:40;;;;;;;2.38;2.15;;;;;;;27.56;44.88;64856.38;5051948;28;20221;-83
2022/06/26 11:48:12;;;;;;;2.13;1.85;;;;;;;28.52;42.95;64954.56;5048329;28;20271;-83
2022/06/26 11:50:39;;;;;;;3.30;1.88;;;;;;;28.59;40.20;64961.94;5048262;28;20221;-84
2022/06/26 11:53:07;;;;;;;2.67;1.67;;;;;;;28.92;38.97;64998.69;5047881;28;20201;-81